createdAt,value
2022-08-12T00:02:04.595Z,18.68
2022-08-12T00:07:58.518Z,18.62
2022-08-12T00:13:48.137Z,18.54
2022-08-12T00:19:37.723Z,18.47
2022-08-12T00:26:05.798Z,18.43
2022-08-12T00:31:36.982Z,18.40
2022-08-12T00:37:26.567Z,18.38
2022-08-12T00:43:00.098Z,18.40
2022-08-12T00:48:32.017Z,18.34
2022-08-12T00:54:04.436Z,18.28
2022-08-12T00:59:36.512Z,18.23
2022-08-12T01:05:38.399Z,18.16
2022-08-12T01:11:28.601Z,18.13
2022-08-12T01:17:00.134Z,18.06
2022-08-12T01:22:38.926Z,18.00
2022-08-12T01:28:13.877Z,17.94
2022-08-12T01:34:00.021Z,17.90
2022-08-12T01:39:34.123Z,17.84
2022-08-12T01:45:06.200Z,17.84
2022-08-12T01:50:37.260Z,17.89
2022-08-12T01:56:09.537Z,17.99
2022-08-12T02:01:40.648Z,17.89
2022-08-12T02:07:46.877Z,17.93
2022-08-12T02:13:48.552Z,17.87
2022-08-12T02:19:55.261Z,17.78
2022-08-12T02:25:33.227Z,17.82
2022-08-12T02:31:06.866Z,17.84
2022-08-12T02:36:39.661Z,17.82
2022-08-12T02:42:12.156Z,17.88
2022-08-12T02:47:59.261Z,17.88
2022-08-12T02:53:34.783Z,17.82
2022-08-12T02:59:07.076Z,17.82
2022-08-12T03:04:51.831Z,17.80
2022-08-12T03:10:37.542Z,17.76
2022-08-12T03:16:09.870Z,17.72
2022-08-12T03:21:58.010Z,17.67
2022-08-12T03:27:33.383Z,17.62
2022-08-12T03:33:06.472Z,17.57
2022-08-12T03:38:43.200Z,17.53
2022-08-12T03:44:39.308Z,17.50
2022-08-12T03:50:29.770Z,17.50
2022-08-12T03:56:19.251Z,17.46
2022-08-12T04:01:58.604Z,17.37
2022-08-12T04:07:30.499Z,17.36
2022-08-12T04:13:19.932Z,17.32
2022-08-12T04:18:53.423Z,17.29
2022-08-12T04:24:25.905Z,17.24
2022-08-12T04:30:17.144Z,17.22
2022-08-12T04:35:49.941Z,17.20
2022-08-12T04:41:21.580Z,17.01
2022-08-12T04:46:54.688Z,16.72
2022-08-12T04:52:25.717Z,16.55
2022-08-12T04:57:57.271Z,16.47
2022-08-12T05:03:28.412Z,16.39
2022-08-12T05:09:17.431Z,16.30
2022-08-12T05:14:48.791Z,16.27
2022-08-12T05:20:23.310Z,16.27
2022-08-12T05:25:57.218Z,16.27
2022-08-12T05:31:42.509Z,16.36
2022-08-12T05:37:22.883Z,16.52
2022-08-12T05:42:54.392Z,16.62
2022-08-12T05:48:25.709Z,16.71
2022-08-12T05:54:00.291Z,16.86
2022-08-12T05:59:33.086Z,17.05
2022-08-12T06:05:10.737Z,17.24
2022-08-12T06:10:42.377Z,17.51
2022-08-12T06:16:16.976Z,17.77
2022-08-12T06:21:49.286Z,18.06
2022-08-12T06:27:21.783Z,18.31
2022-08-12T06:33:04.203Z,18.56
2022-08-12T06:38:50.444Z,18.79
2022-08-12T06:44:23.516Z,19.00
2022-08-12T06:49:54.523Z,19.18
2022-08-12T06:55:26.306Z,19.38
2022-08-12T07:00:58.834Z,19.60
2022-08-12T07:06:30.357Z,19.82
2022-08-12T07:12:01.420Z,20.01
2022-08-12T07:17:37.991Z,20.15
2022-08-12T07:23:11.031Z,20.35
2022-08-12T07:28:45.526Z,20.56
2022-08-12T07:34:17.335Z,20.77
2022-08-12T07:39:50.759Z,20.96
2022-08-12T07:45:31.055Z,21.34
2022-08-12T07:51:02.629Z,21.64
2022-08-12T07:56:33.975Z,21.91
2022-08-12T08:02:05.110Z,22.15
2022-08-12T08:07:36.184Z,22.33
2022-08-12T08:13:08.996Z,22.45
2022-08-12T08:18:40.408Z,22.50
2022-08-12T08:24:14.783Z,22.55
2022-08-12T08:29:46.141Z,22.60
2022-08-12T08:35:17.134Z,22.70
2022-08-12T08:41:06.810Z,22.88
2022-08-12T08:46:38.386Z,23.05
2022-08-12T08:52:12.045Z,23.11
2022-08-12T08:57:47.893Z,23.29
2022-08-12T09:05:07.198Z,23.34
2022-08-12T09:09:14.509Z,23.55
2022-08-12T09:14:46.795Z,23.70
2022-08-12T09:20:33.876Z,23.85
2022-08-12T09:26:08.161Z,23.94
2022-08-12T09:32:04.253Z,24.03
2022-08-12T09:37:57.854Z,24.12
2022-08-12T09:43:47.032Z,24.15
2022-08-12T09:49:25.273Z,24.14
2022-08-12T09:55:02.282Z,24.33
2022-08-12T10:00:52.030Z,24.31
2022-08-12T10:06:32.465Z,23.76
2022-08-12T10:12:32.809Z,23.97
2022-08-12T10:18:14.870Z,24.31
2022-08-12T10:23:51.602Z,24.65
2022-08-12T10:30:02.859Z,24.90
2022-08-12T10:35:38.229Z,24.87
2022-08-12T10:41:58.177Z,24.99
2022-08-12T10:47:26.431Z,25.06
2022-08-12T10:53:15.609Z,25.25
2022-08-12T10:58:52.243Z,25.08
2022-08-12T11:04:41.382Z,25.16
2022-08-12T11:10:16.409Z,25.36
2022-08-12T11:16:19.558Z,25.33
2022-08-12T11:21:58.410Z,25.46
2022-08-12T11:27:32.988Z,25.49
2022-08-12T11:39:01.314Z,25.60
2022-08-12T11:44:42.935Z,25.52
2022-08-12T11:50:19.586Z,25.31
2022-08-12T11:55:52.579Z,25.51
2022-08-12T12:02:01.716Z,25.63
2022-08-12T12:07:15.169Z,25.95
2022-08-12T12:12:50.108Z,25.75
2022-08-12T12:18:30.715Z,25.48
2022-08-12T12:24:02.271Z,25.40
2022-08-12T12:30:18.915Z,25.64
2022-08-12T12:36:06.504Z,25.90
2022-08-12T12:41:16.824Z,25.99
2022-08-12T12:46:49.823Z,25.55
2022-08-12T12:52:21.492Z,25.12
2022-08-12T12:58:00.969Z,24.79
2022-08-12T13:03:48.772Z,24.58
2022-08-12T13:09:22.320Z,24.49
2022-08-12T13:14:54.259Z,24.45
2022-08-12T13:20:37.768Z,24.51
2022-08-12T13:26:14.414Z,24.66
2022-08-12T13:32:19.087Z,24.77
2022-08-12T13:37:43.774Z,24.78
2022-08-12T13:43:40.554Z,24.91
2022-08-12T13:49:20.479Z,25.03
2022-08-12T13:55:06.366Z,25.15
2022-08-12T14:00:38.597Z,25.28
2022-08-12T14:06:15.350Z,25.46
2022-08-12T14:11:59.199Z,25.45
2022-08-12T14:17:31.494Z,25.37
2022-08-12T14:24:01.451Z,25.27
2022-08-12T14:29:02.590Z,25.30
2022-08-12T14:34:33.884Z,25.18
2022-08-12T14:40:06.332Z,25.04
2022-08-12T14:45:49.084Z,24.89
2022-08-12T14:52:54.672Z,24.77
2022-08-12T14:57:20.284Z,24.64
2022-08-12T15:02:55.677Z,24.62
2022-08-12T15:08:38.820Z,24.60
2022-08-12T15:14:11.457Z,24.63
2022-08-12T15:20:11.191Z,24.68
2022-08-12T15:25:39.963Z,24.71
2022-08-12T15:31:27.453Z,24.77
2022-08-12T15:36:59.703Z,24.83
2022-08-12T15:42:30.575Z,24.83
2022-08-12T15:48:17.098Z,24.84
2022-08-12T15:54:05.822Z,24.78
2022-08-12T16:00:06.728Z,24.71
2022-08-12T16:06:19.455Z,24.67
2022-08-12T16:11:43.415Z,24.59
2022-08-12T16:17:15.863Z,24.44
2022-08-12T16:22:52.211Z,24.28
2022-08-12T16:28:28.206Z,24.20
2022-08-12T16:34:00.986Z,24.16
2022-08-12T16:40:00.382Z,24.12
2022-08-12T16:45:58.146Z,24.08
2022-08-12T16:51:20.061Z,24.00
2022-08-12T16:56:57.967Z,23.95
2022-08-12T17:02:33.692Z,23.88
2022-08-12T17:08:10.791Z,23.81
2022-08-12T17:13:53.139Z,23.74
2022-08-12T17:20:29.301Z,23.68
2022-08-12T17:25:17.560Z,23.61
2022-08-12T17:30:57.394Z,23.56
2022-08-12T17:36:35.847Z,23.51
2022-08-12T17:42:32.922Z,23.46
2022-08-12T17:48:12.153Z,23.41
2022-08-12T17:54:05.967Z,23.33
2022-08-12T17:59:47.558Z,23.25
2022-08-12T18:05:23.072Z,23.17
2022-08-12T18:11:15.370Z,23.07
2022-08-12T18:17:08.291Z,22.99
2022-08-12T18:22:46.592Z,22.89
2022-08-12T18:28:29.035Z,22.84
2022-08-12T18:34:06.552Z,22.78
2022-08-12T18:39:58.908Z,22.70
2022-08-12T18:45:31.367Z,22.63
2022-08-12T18:51:21.968Z,22.56
2022-08-12T18:57:16.322Z,22.53
2022-08-12T19:02:53.830Z,22.49
2022-08-12T19:08:30.191Z,22.45
2022-08-12T19:14:20.074Z,22.38
2022-08-12T19:19:52.117Z,22.34
2022-08-12T19:26:00.546Z,22.29
2022-08-12T19:31:45.381Z,22.26
2022-08-12T19:38:04.366Z,22.21
2022-08-12T19:43:22.432Z,22.17
2022-08-12T19:49:02.885Z,22.12
2022-08-12T19:54:35.625Z,22.05
2022-08-12T20:00:07.906Z,21.99
2022-08-12T20:06:05.882Z,21.94
2022-08-12T20:12:11.564Z,21.88
2022-08-12T20:17:34.516Z,21.79
2022-08-12T20:28:40.092Z,21.66
2022-08-12T20:34:12.461Z,21.57
2022-08-12T20:39:52.988Z,21.48
2022-08-12T20:45:39.996Z,21.39
2022-08-12T20:51:21.544Z,21.32
2022-08-12T20:56:53.006Z,21.25
2022-08-12T21:02:30.465Z,21.18
2022-08-12T21:08:02.466Z,21.13
2022-08-12T21:13:39.519Z,21.06
2022-08-12T21:19:22.467Z,20.98
2022-08-12T21:24:55.985Z,20.90
2022-08-12T21:30:34.079Z,20.81
2022-08-12T21:36:14.276Z,20.76
2022-08-12T21:41:56.181Z,20.68
2022-08-12T21:47:28.640Z,20.60
2022-08-12T21:53:02.401Z,20.54
2022-08-12T21:58:42.313Z,20.47
2022-08-12T22:04:32.015Z,20.40
2022-08-12T22:10:04.888Z,20.37
2022-08-12T22:15:36.197Z,20.32
2022-08-12T22:21:09.324Z,20.30
2022-08-12T22:26:43.735Z,20.20
2022-08-12T22:32:16.515Z,20.11
2022-08-12T22:37:53.702Z,20.09
2022-08-12T22:43:58.964Z,20.02
2022-08-12T22:49:37.060Z,19.95
2022-08-12T22:55:59.575Z,19.93
2022-08-12T23:01:50.195Z,19.86
2022-08-12T23:07:08.303Z,19.81
2022-08-12T23:13:01.718Z,19.73
2022-08-12T23:18:36.488Z,19.67
2022-08-12T23:24:10.461Z,19.60
2022-08-12T23:29:43.335Z,19.56
2022-08-12T23:35:46.090Z,19.52
2022-08-12T23:41:29.441Z,19.47
2022-08-12T23:47:18.186Z,19.42
2022-08-12T23:52:51.294Z,19.38
2022-08-12T23:58:28.476Z,19.34
